Time;durP1;ratioP1;P1;durP2;ratioP2;P2;SDS_P1;SDS_P2;PMS_P1;PMS_P2;Temp;Humidity;BMP_temperature;BMP_pressure;BME280_temperature;BME280_humidity;BME280_pressure;Samples;Min_cycle;Max_cycle;Signal;HPM_P1;HPM_P2
2023/02/07 00:01:48;;;;;;;;;;;;;;;-6.85;100.00;100912.34;5062129;28;19929;-57
2023/02/07 00:04:14;;;;;;;;;;;;;;;-6.91;100.00;100901.84;5030430;28;19929;-54
2023/02/07 00:06:39;;;;;;;;;;;;;;;-6.90;100.00;100898.63;5029290;28;20019;-51
2023/02/07 00:09:06;;;;;;;;;;;;;;;-6.94;100.00;100907.44;5026001;28;19925;-53
2023/02/07 00:11:31;;;;;;;;;;;;;;;-6.98;100.00;100910.44;5027196;28;20431;-53
2023/02/07 00:13:57;;;;;;;;;;;;;;;-6.96;100.00;100915.56;5028993;28;20055;-49
2023/02/07 00:16:26;;;;;;;;;;;;;;;-6.96;100.00;100923.88;5029766;28;19925;-51
2023/02/07 00:18:52;;;;;;;;;;;;;;;-6.87;100.00;100932.94;5060133;28;19931;-51
2023/02/07 00:21:19;;;;;;;;;;;;;;;-6.80;100.00;100935.19;5028911;28;19929;-51
2023/02/07 00:23:45;;;;;;;;;;;;;;;-6.78;100.00;100939.56;5030155;28;20458;-52
2023/02/07 00:26:11;;;;;;;;;;;;;;;-6.81;100.00;100959.25;5029573;28;19925;-53
2023/02/07 00:28:37;;;;;;;;;;;;;;;-6.89;100.00;100956.84;5031960;28;19964;-50
2023/02/07 00:31:04;;;;;;;;;;;;;;;-6.87;100.00;100952.88;5037275;28;20041;-51
2023/02/07 00:33:29;;;;;;;;;;;;;;;-6.79;100.00;100961.88;5030462;28;19970;-53
2023/02/07 00:35:59;;;;;;;;;;;;;;;-6.76;100.00;100964.63;5035730;28;19929;-53
2023/02/07 00:38:25;;;;;;;;;;;;;;;-6.81;100.00;100955.88;5029445;28;19925;-52
2023/02/07 00:40:52;;;;;;;;;;;;;;;-6.82;100.00;100952.50;5019806;28;19929;-50
2023/02/07 00:43:18;;;;;;;;;;;;;;;-6.85;100.00;100961.34;5028938;28;19931;-52
2023/02/07 00:45:43;;;;;;;;;;;;;;;-6.87;100.00;100963.69;5030086;28;20288;-52
2023/02/07 00:48:09;;;;;;;;;;;;;;;-6.97;100.00;100968.63;5030720;28;20007;-52
2023/02/07 00:50:34;;;;;;;;;;;;;;;-7.02;100.00;100962.38;5028535;28;20031;-53
2023/02/07 00:53:00;;;;;;;;;;;;;;;-7.08;100.00;100967.69;5027501;28;19951;-52
2023/02/07 00:55:25;;;;;;;;;;;;;;;-7.13;100.00;100963.06;5028751;28;19936;-51
2023/02/07 00:57:51;;;;;;;;;;;;;;;-7.16;100.00;100953.69;5033148;28;20449;-50
2023/02/07 01:00:16;;;;;;;;;;;;;;;-7.22;100.00;100957.28;5034169;28;19948;-51
2023/02/07 01:02:42;;;;;;;;;;;;;;;-7.03;100.00;100950.66;5063591;28;20031;-54
2023/02/07 01:05:07;;;;;;;;;;;;;;;-6.98;100.00;100955.28;5029085;28;20012;-51
2023/02/07 01:07:33;;;;;;;;;;;;;;;-7.04;100.00;100949.75;5060195;28;19928;-54
2023/02/07 01:09:59;;;;;;;;;;;;;;;-7.14;100.00;100953.81;5053477;28;19935;-55
2023/02/07 01:12:24;;;;;;;;;;;;;;;-7.08;100.00;100950.25;5030643;28;20016;-55
2023/02/07 01:14:50;;;;;;;;;;;;;;;-7.09;100.00;100950.13;5029986;28;19960;-54
2023/02/07 01:17:17;;;;;;;;;;;;;;;-7.14;100.00;100951.34;5030743;28;20391;-55
2023/02/07 01:19:42;;;;;;;;;;;;;;;-7.16;100.00;100953.69;5028323;28;19931;-56
2023/02/07 01:22:08;;;;;;;;;;;;;;;-7.24;100.00;100964.59;5029231;28;20358;-56
2023/02/07 01:24:34;;;;;;;;;;;;;;;-7.26;100.00;100967.72;5032663;28;19956;-54
2023/02/07 01:26:59;;;;;;;;;;;;;;;-7.26;100.00;100946.16;5022127;28;19935;-59
2023/02/07 01:29:25;;;;;;;;;;;;;;;-7.25;100.00;100955.38;5032160;28;20307;-55
2023/02/07 01:31:52;;;;;;;;;;;;;;;-7.32;100.00;100959.69;5031694;28;20034;-54
2023/02/07 01:34:18;;;;;;;;;;;;;;;-7.19;100.00;100947.56;5024520;28;20403;-54
2023/02/07 01:36:45;;;;;;;;;;;;;;;-7.18;100.00;100939.34;5025986;28;20421;-57
2023/02/07 01:39:11;;;;;;;;;;;;;;;-7.25;100.00;100937.03;5026682;28;20375;-54
2023/02/07 01:41:37;;;;;;;;;;;;;;;-7.30;100.00;100930.81;5035850;28;19978;-55
2023/02/07 01:44:23;;;;;;;;;;;;;;;-7.38;100.00;100930.13;5029242;28;19937;-55
2023/02/07 01:46:49;;;;;;;;;;;;;;;-7.49;100.00;100926.69;5026966;28;20362;-52
2023/02/07 01:49:17;;;;;;;;;;;;;;;-7.55;100.00;100907.81;5030128;28;19925;-55
2023/02/07 01:51:51;;;;;;;;;;;;;;;-7.61;100.00;100892.38;5025423;28;19964;-55
2023/02/07 01:54:17;;;;;;;;;;;;;;;-7.41;100.00;100894.97;5025590;28;19934;-55
2023/02/07 01:56:46;;;;;;;;;;;;;;;-7.21;100.00;100901.72;5030360;28;19925;-54
2023/02/07 01:59:12;;;;;;;;;;;;;;;-7.06;100.00;100896.44;5027218;28;20304;-56
2023/02/07 02:01:39;;;;;;;;;;;;;;;-6.96;100.00;100898.09;5028611;28;19925;-57
2023/02/07 02:04:04;;;;;;;;;;;;;;;-6.93;100.00;100895.88;5028774;28;19960;-51
2023/02/07 02:06:32;;;;;;;;;;;;;;;-7.02;100.00;100898.44;5037553;28;19972;-57
2023/02/07 02:08:58;;;;;;;;;;;;;;;-6.93;100.00;100899.25;5034679;28;20391;-56
2023/02/07 02:11:27;;;;;;;;;;;;;;;-6.96;100.00;100890.63;5039363;28;19933;-54
2023/02/07 02:14:05;;;;;;;;;;;;;;;-7.03;100.00;100880.84;5031428;28;20264;-57
2023/02/07 02:16:32;;;;;;;;;;;;;;;-7.08;100.00;100884.56;5042852;28;19951;-52
2023/02/07 02:19:24;;;;;;;;;;;;;;;-7.06;100.00;100879.00;5030861;28;20714;-54
2023/02/07 02:21:52;;;;;;;;;;;;;;;-7.11;100.00;100877.72;5027920;28;19932;-65
2023/02/07 02:24:21;;;;;;;;;;;;;;;-7.13;100.00;100870.88;5044396;28;20422;-55
2023/02/07 02:26:59;;;;;;;;;;;;;;;-7.16;100.00;100868.97;5044142;28;20522;-62
2023/02/07 02:29:43;;;;;;;;;;;;;;;-7.21;100.00;100880.13;5060029;28;19932;-55
2023/02/07 02:32:27;;;;;;;;;;;;;;;-7.17;100.00;100884.66;5028910;28;19979;-54
2023/02/07 02:34:53;;;;;;;;;;;;;;;-7.30;100.00;100896.81;5044754;28;19991;-55
2023/02/07 02:37:24;;;;;;;;;;;;;;;-7.43;100.00;100894.88;5028895;28;20055;-54
2023/02/07 02:39:49;;;;;;;;;;;;;;;-7.48;100.00;100895.19;5028064;28;20150;-55
2023/02/07 02:42:18;;;;;;;;;;;;;;;-7.50;100.00;100895.06;5029909;28;20420;-55
2023/02/07 02:44:45;;;;;;;;;;;;;;;-7.46;100.00;100887.09;5029323;28;19925;-56
2023/02/07 02:47:10;;;;;;;;;;;;;;;-7.40;100.00;100885.16;5028186;28;19932;-55
2023/02/07 02:49:36;;;;;;;;;;;;;;;-7.46;100.00;100882.13;5030290;28;20439;-58
2023/02/07 02:52:02;;;;;;;;;;;;;;;-7.52;100.00;100886.59;5028242;28;20444;-57
2023/02/07 02:54:32;;;;;;;;;;;;;;;-7.55;100.00;100891.28;5029108;28;20016;-63
2023/02/07 02:57:16;;;;;;;;;;;;;;;-7.57;100.00;100874.47;5060038;28;19925;-55
2023/02/07 02:59:51;;;;;;;;;;;;;;;-7.56;100.00;100869.63;5029483;28;20020;-56
2023/02/07 03:02:29;;;;;;;;;;;;;;;-7.44;100.00;100864.84;5027090;28;19928;-56
2023/02/07 03:05:17;;;;;;;;;;;;;;;-7.40;100.00;100860.25;5059222;28;20008;-55
2023/02/07 03:08:03;;;;;;;;;;;;;;;-7.40;100.00;100854.41;5026270;28;19931;-58
2023/02/07 03:10:31;;;;;;;;;;;;;;;-7.49;100.00;100844.50;5043195;28;20347;-56
2023/02/07 03:13:02;;;;;;;;;;;;;;;-7.55;100.00;100848.06;5027952;28;19983;-55
2023/02/07 03:15:53;;;;;;;;;;;;;;;-7.63;100.00;100849.88;5027983;28;20529;-55
2023/02/07 03:18:30;;;;;;;;;;;;;;;-7.74;100.00;100845.59;5028335;28;19932;-52
2023/02/07 03:21:00;;;;;;;;;;;;;;;-7.82;100.00;100845.66;5027717;28;20392;-58
2023/02/07 03:23:26;;;;;;;;;;;;;;;-7.85;100.00;100854.59;5028588;28;20474;-53
2023/02/07 03:25:55;;;;;;;;;;;;;;;-7.90;100.00;100830.94;5026399;28;19955;-54
2023/02/07 03:28:21;;;;;;;;;;;;;;;-7.98;100.00;100834.38;5056489;28;19929;-55
2023/02/07 03:30:50;;;;;;;;;;;;;;;-8.03;100.00;100835.56;5033035;28;20300;-55
2023/02/07 03:33:16;;;;;;;;;;;;;;;-8.09;100.00;100827.53;5031727;28;19929;-56
2023/02/07 03:35:52;;;;;;;;;;;;;;;-8.10;100.00;100823.28;5028824;28;19933;-55
2023/02/07 03:38:18;;;;;;;;;;;;;;;-8.14;100.00;100832.84;5030824;28;19952;-57
2023/02/07 03:40:50;;;;;;;;;;;;;;;-8.18;100.00;100854.06;5031351;28;20391;-54
2023/02/07 03:43:19;;;;;;;;;;;;;;;-8.21;100.00;100875.31;5034260;28;19925;-57
2023/02/07 03:45:44;;;;;;;;;;;;;;;-8.19;100.00;100868.88;5031835;28;19932;-57
2023/02/07 03:48:10;;;;;;;;;;;;;;;-8.22;100.00;100881.03;5030604;28;20388;-55
2023/02/07 03:50:36;;;;;;;;;;;;;;;-8.25;100.00;100870.81;5032679;28;19924;-55
2023/02/07 03:53:01;;;;;;;;;;;;;;;-8.26;100.00;100867.44;5032095;28;19963;-53
2023/02/07 03:55:27;;;;;;;;;;;;;;;-8.27;100.00;100867.31;5033580;28;20276;-55
2023/02/07 03:57:53;;;;;;;;;;;;;;;-8.27;100.00;100859.88;5029666;28;19972;-55
2023/02/07 04:00:18;;;;;;;;;;;;;;;-8.24;100.00;100845.22;5030501;28;20220;-54
2023/02/07 04:02:44;;;;;;;;;;;;;;;-8.22;100.00;100833.75;5031835;28;19963;-53
2023/02/07 04:05:09;;;;;;;;;;;;;;;-7.93;100.00;100840.59;5031175;28;19929;-54
2023/02/07 04:07:35;;;;;;;;;;;;;;;-8.13;100.00;100852.88;5030228;28;20443;-55
2023/02/07 04:10:02;;;;;;;;;;;;;;;-8.23;100.00;100871.84;5030942;28;20475;-53
2023/02/07 04:12:31;;;;;;;;;;;;;;;-8.29;100.00;100878.75;5031136;28;20019;-54
2023/02/07 04:15:00;;;;;;;;;;;;;;;-8.31;100.00;100891.06;5033317;28;20276;-54
2023/02/07 04:17:26;;;;;;;;;;;;;;;-8.32;100.00;100885.19;5031114;28;19947;-56
2023/02/07 04:19:52;;;;;;;;;;;;;;;-8.21;100.00;100881.19;5032216;28;19932;-55
2023/02/07 04:22:17;;;;;;;;;;;;;;;-8.01;100.00;100873.00;5031385;28;20319;-55
2023/02/07 04:24:43;;;;;;;;;;;;;;;-8.11;100.00;100868.84;5031772;28;19972;-54
2023/02/07 04:27:08;;;;;;;;;;;;;;;-8.12;100.00;100868.69;5034942;28;20038;-56
2023/02/07 04:29:33;;;;;;;;;;;;;;;-8.11;100.00;100867.97;5032877;28;20350;-55
2023/02/07 04:31:59;;;;;;;;;;;;;;;-8.12;100.00;100873.66;5032271;28;19928;-53
2023/02/07 04:34:24;;;;;;;;;;;;;;;-8.21;100.00;100866.25;5032104;28;20353;-55
2023/02/07 04:36:50;;;;;;;;;;;;;;;-8.24;100.00;100861.00;5031662;28;20372;-55
2023/02/07 04:39:15;;;;;;;;;;;;;;;-8.01;100.00;100858.06;5031878;28;19940;-55
2023/02/07 04:41:40;;;;;;;;;;;;;;;-8.14;100.00;100858.59;5030379;28;20016;-55
2023/02/07 04:44:06;;;;;;;;;;;;;;;-8.22;100.00;100881.91;5031062;28;20506;-57
2023/02/07 04:46:31;;;;;;;;;;;;;;;-8.05;100.00;100878.44;5031469;28;19929;-54
2023/02/07 04:48:57;;;;;;;;;;;;;;;-7.87;100.00;100883.47;5031916;28;19925;-55
2023/02/07 04:51:22;;;;;;;;;;;;;;;-7.92;100.00;100872.22;5031909;28;19931;-55
2023/02/07 04:53:48;;;;;;;;;;;;;;;-7.67;100.00;100869.41;5031532;28;20376;-55
2023/02/07 04:56:14;;;;;;;;;;;;;;;-7.36;100.00;100873.84;5049574;28;20225;-56
2023/02/07 04:58:39;;;;;;;;;;;;;;;-7.45;100.00;100878.91;5029242;28;19964;-56
2023/02/07 05:01:05;;;;;;;;;;;;;;;-7.54;100.00;100884.69;5031375;28;20091;-53
2023/02/07 05:03:30;;;;;;;;;;;;;;;-7.77;100.00;100897.59;5028075;28;20457;-55
2023/02/07 05:05:56;;;;;;;;;;;;;;;-7.99;100.00;100891.44;5028550;28;19955;-53
2023/02/07 05:08:21;;;;;;;;;;;;;;;-8.19;100.00;100901.22;5032216;28;19929;-53
2023/02/07 05:10:50;;;;;;;;;;;;;;;-8.26;100.00;100902.25;5031446;28;19981;-57
2023/02/07 05:13:16;;;;;;;;;;;;;;;-8.32;100.00;100915.81;5030591;28;19921;-56
2023/02/07 05:15:41;;;;;;;;;;;;;;;-8.44;100.00;100913.03;5029769;28;19939;-53
2023/02/07 05:18:07;;;;;;;;;;;;;;;-8.49;100.00;100910.16;5030174;28;19929;-52
2023/02/07 05:20:32;;;;;;;;;;;;;;;-8.57;100.00;100910.19;5030940;28;19932;-55
2023/02/07 05:22:58;;;;;;;;;;;;;;;-8.55;100.00;100911.19;5031356;28;19929;-54
2023/02/07 05:25:23;;;;;;;;;;;;;;;-8.61;100.00;100915.63;5030736;28;19929;-52
2023/02/07 05:27:48;;;;;;;;;;;;;;;-8.68;100.00;100923.22;5030666;28;20187;-54
2023/02/07 05:30:14;;;;;;;;;;;;;;;-8.63;100.00;100920.44;5029588;28;20380;-56
2023/02/07 05:35:23;;;;;;;;;;;;;;;-8.64;100.00;100930.22;5031339;28;19929;-53
2023/02/07 05:37:49;;;;;;;;;;;;;;;-8.70;100.00;100920.63;5031403;28;19935;-56
2023/02/07 05:40:15;;;;;;;;;;;;;;;-8.73;100.00;100925.28;5030385;28;20319;-53
2023/02/07 05:42:40;;;;;;;;;;;;;;;-8.72;100.00;100927.03;5030134;28;19929;-56
2023/02/07 05:45:06;;;;;;;;;;;;;;;-8.65;100.00;100921.88;5031511;28;19983;-55
2023/02/07 05:47:32;;;;;;;;;;;;;;;-8.56;100.00;100916.88;5029200;28;20003;-54
2023/02/07 05:49:57;;;;;;;;;;;;;;;-8.50;100.00;100915.88;5029371;28;19935;-55
2023/02/07 05:52:22;;;;;;;;;;;;;;;-8.54;100.00;100922.91;5030544;28;19943;-54
2023/02/07 05:54:48;;;;;;;;;;;;;;;-8.57;100.00;100927.59;5031275;28;19979;-54
2023/02/07 05:57:13;;;;;;;;;;;;;;;-8.62;100.00;100929.66;5062221;28;20307;-56
2023/02/07 05:59:39;;;;;;;;;;;;;;;-8.65;100.00;100925.97;5030465;28;19968;-56
2023/02/07 06:02:04;;;;;;;;;;;;;;;-8.64;100.00;100931.09;5029791;28;19929;-56
2023/02/07 06:04:30;;;;;;;;;;;;;;;-8.63;100.00;100925.41;5030838;28;19929;-56
2023/02/07 06:06:56;;;;;;;;;;;;;;;-8.65;100.00;100918.53;5029595;28;20399;-52
2023/02/07 06:09:21;;;;;;;;;;;;;;;-8.65;100.00;100919.41;5027926;28;20796;-55
2023/02/07 06:11:47;;;;;;;;;;;;;;;-8.65;100.00;100918.53;5026522;28;19944;-54
2023/02/07 06:14:12;;;;;;;;;;;;;;;-8.70;100.00;100927.19;5027624;28;19930;-55
2023/02/07 06:16:41;;;;;;;;;;;;;;;-8.71;100.00;100933.78;5027479;28;19928;-54
2023/02/07 06:19:06;;;;;;;;;;;;;;;-8.73;100.00;100932.72;5027929;28;20339;-56
2023/02/07 06:21:31;;;;;;;;;;;;;;;-8.73;100.00;100939.31;5028085;28;20333;-56
2023/02/07 06:23:57;;;;;;;;;;;;;;;-8.77;100.00;100928.22;5027803;28;20474;-56
2023/02/07 06:26:22;;;;;;;;;;;;;;;-8.77;100.00;100927.34;5030179;28;19976;-55
2023/02/07 06:28:48;;;;;;;;;;;;;;;-8.75;100.00;100920.91;5028708;28;19948;-56
2023/02/07 06:31:14;;;;;;;;;;;;;;;-8.72;100.00;100924.56;5027366;28;19984;-53
2023/02/07 06:33:39;;;;;;;;;;;;;;;-8.64;100.00;100925.25;5026828;28;20388;-54
2023/02/07 06:36:05;;;;;;;;;;;;;;;-8.63;100.00;100925.41;5027239;28;19932;-56
2023/02/07 06:38:30;;;;;;;;;;;;;;;-8.55;100.00;100929.47;5029298;28;19929;-57
2023/02/07 06:40:55;;;;;;;;;;;;;;;-8.51;100.00;100938.97;5030768;28;19936;-55
2023/02/07 06:43:21;;;;;;;;;;;;;;;-8.49;100.00;100940.00;5028340;28;19999;-52
2023/02/07 06:45:46;;;;;;;;;;;;;;;-8.40;100.00;100948.28;5028551;28;19929;-55
2023/02/07 06:48:12;;;;;;;;;;;;;;;-8.35;100.00;100946.22;5027553;28;20027;-54
2023/02/07 06:50:37;;;;;;;;;;;;;;;-8.30;100.00;100951.63;5027797;28;19936;-56
2023/02/07 06:53:03;;;;;;;;;;;;;;;-8.26;100.00;100953.63;5028566;28;19929;-57
2023/02/07 06:55:34;;;;;;;;;;;;;;;-8.15;100.00;100956.38;5026346;28;19943;-56
2023/02/07 06:57:59;;;;;;;;;;;;;;;-8.07;100.00;100964.53;5022990;28;20674;-56
2023/02/07 07:00:25;;;;;;;;;;;;;;;-8.02;100.00;100959.22;5027164;28;19970;-55
2023/02/07 07:02:51;;;;;;;;;;;;;;;-7.94;100.00;100957.44;5027530;28;20048;-55
2023/02/07 07:05:17;;;;;;;;;;;;;;;-7.84;100.00;100957.53;5030631;28;19947;-57
2023/02/07 07:07:43;;;;;;;;;;;;;;;-7.70;100.00;100967.13;5029691;28;20377;-54
2023/02/07 07:10:09;;;;;;;;;;;;;;;-7.57;100.00;100967.47;5017159;28;20473;-53
2023/02/07 07:12:34;;;;;;;;;;;;;;;-7.46;100.00;100956.84;5033575;28;19940;-55
2023/02/07 07:15:00;;;;;;;;;;;;;;;-7.33;100.00;100962.91;5031361;28;20020;-56
2023/02/07 07:17:25;;;;;;;;;;;;;;;-7.20;100.00;100971.59;5031995;28;19952;-56
2023/02/07 07:19:50;;;;;;;;;;;;;;;-7.07;100.00;100958.59;5030335;28;19929;-57
2023/02/07 07:22:16;;;;;;;;;;;;;;;-6.91;100.00;100959.19;5026745;28;19957;-56
2023/02/07 07:24:42;;;;;;;;;;;;;;;-6.80;100.00;100953.53;5025767;28;20357;-57
2023/02/07 07:27:07;;;;;;;;;;;;;;;-6.66;100.00;100955.56;5034246;28;20311;-54
2023/02/07 07:29:32;;;;;;;;;;;;;;;-6.60;100.00;100953.59;5037289;28;20379;-54
2023/02/07 07:31:58;;;;;;;;;;;;;;;-6.43;100.00;100954.16;5031942;28;19929;-56
2023/02/07 07:34:23;;;;;;;;;;;;;;;-6.31;100.00;100940.22;5025058;28;19933;-51
2023/02/07 07:36:49;;;;;;;;;;;;;;;-6.12;100.00;100944.41;5029926;28;20380;-57
2023/02/07 07:39:15;;;;;;;;;;;;;;;-5.93;100.00;100946.78;5030773;28;20184;-51
2023/02/07 07:41:41;;;;;;;;;;;;;;;-5.76;100.00;100935.66;5029135;28;20197;-53
2023/02/07 07:44:14;;;;;;;;;;;;;;;-5.61;100.00;100932.81;5050457;28;19933;-54
2023/02/07 07:46:40;;;;;;;;;;;;;;;-5.54;100.00;100937.53;5026491;28;20469;-55
2023/02/07 07:49:05;;;;;;;;;;;;;;;-5.35;100.00;100929.03;5028001;28;20256;-55
2023/02/07 07:51:31;;;;;;;;;;;;;;;-5.27;100.00;100926.41;5029112;28;19925;-56
2023/02/07 07:53:57;;;;;;;;;;;;;;;-5.07;100.00;100936.34;5027998;28;20409;-55
2023/02/07 07:56:22;;;;;;;;;;;;;;;-4.92;100.00;100928.31;5024856;28;19929;-57
2023/02/07 07:58:48;;;;;;;;;;;;;;;-4.81;100.00;100925.91;5026179;28;20024;-54
2023/02/07 08:01:13;;;;;;;;;;;;;;;-4.59;100.00;100922.56;5025769;28;20407;-54
2023/02/07 08:03:39;;;;;;;;;;;;;;;-4.57;100.00;100931.91;5023302;28;19940;-55
2023/02/07 08:06:05;;;;;;;;;;;;;;;-4.55;100.00;100942.94;5026801;28;19932;-54
2023/02/07 08:08:30;;;;;;;;;;;;;;;-4.54;100.00;100943.81;5027602;28;20841;-53
2023/02/07 08:11:03;;;;;;;;;;;;;;;-4.53;100.00;100938.03;5028366;28;20157;-54
2023/02/07 08:13:28;;;;;;;;;;;;;;;-4.27;100.00;100943.41;5028971;28;19936;-53
2023/02/07 08:15:53;;;;;;;;;;;;;;;-4.04;100.00;100936.03;5025407;28;20032;-55
2023/02/07 08:18:19;;;;;;;;;;;;;;;-3.98;100.00;100940.59;5026453;28;20451;-54
2023/02/07 08:20:44;;;;;;;;;;;;;;;-3.72;100.00;100938.41;5026453;28;19931;-53
2023/02/07 08:23:10;;;;;;;;;;;;;;;-3.80;100.00;100926.94;5010731;28;20244;-55
2023/02/07 08:25:36;;;;;;;;;;;;;;;-3.55;100.00;100922.09;5028778;28;20038;-54
2023/02/07 08:28:02;;;;;;;;;;;;;;;-3.35;100.00;100914.41;5024922;28;20408;-55
2023/02/07 08:30:27;;;;;;;;;;;;;;;-3.26;100.00;100922.59;5029031;28;19940;-55
2023/02/07 08:32:54;;;;;;;;;;;;;;;-3.16;100.00;100914.97;5028339;28;20178;-54
2023/02/07 08:35:20;;;;;;;;;;;;;;;-3.06;100.00;100906.47;5029134;28;20404;-51
2023/02/07 08:37:45;;;;;;;;;;;;;;;-3.13;100.00;100915.19;5024069;28;19928;-54
2023/02/07 08:40:11;;;;;;;;;;;;;;;-3.48;100.00;100904.28;5026291;28;20222;-54
2023/02/07 08:42:36;;;;;;;;;;;;;;;-3.65;100.00;100904.66;5026824;28;19929;-56
2023/02/07 08:45:03;;;;;;;;;;;;;;;-3.67;100.00;100901.16;5030151;28;19933;-54
2023/02/07 08:47:28;;;;;;;;;;;;;;;-3.35;100.00;100904.38;5028165;28;19933;-54
2023/02/07 08:49:54;;;;;;;;;;;;;;;-3.51;100.00;100914.06;5030005;28;19935;-55
2023/02/07 08:52:19;;;;;;;;;;;;;;;-3.17;100.00;100907.31;5032137;28;20747;-55
2023/02/07 08:54:45;;;;;;;;;;;;;;;-2.96;100.00;100901.31;5027346;28;19936;-55
2023/02/07 08:57:10;;;;;;;;;;;;;;;-2.69;100.00;100902.41;5028047;28;19921;-56
2023/02/07 08:59:36;;;;;;;;;;;;;;;-2.69;100.00;100900.75;5027590;28;19928;-54
2023/02/07 09:02:01;;;;;;;;;;;;;;;-2.55;100.00;100904.25;5025096;28;19987;-55
2023/02/07 09:04:27;;;;;;;;;;;;;;;-2.52;100.00;100891.88;5024188;28;19929;-53
2023/02/07 09:06:52;;;;;;;;;;;;;;;-2.52;100.00;100889.38;5028165;28;19933;-53
2023/02/07 09:09:18;;;;;;;;;;;;;;;-2.58;100.00;100886.44;5028950;28;19929;-54
2023/02/07 09:11:43;;;;;;;;;;;;;;;-2.80;100.00;100892.47;5027320;28;19933;-55
2023/02/07 09:14:09;;;;;;;;;;;;;;;-2.51;100.00;100886.09;5029039;28;20050;-55
2023/02/07 09:16:34;;;;;;;;;;;;;;;-2.24;100.00;100879.56;5026471;28;20367;-58
2023/02/07 09:18:59;;;;;;;;;;;;;;;-2.20;100.00;100889.03;5024345;28;20396;-55
2023/02/07 09:21:25;;;;;;;;;;;;;;;-2.38;100.00;100887.03;5035597;28;19928;-55
2023/02/07 09:23:52;;;;;;;;;;;;;;;-2.08;100.00;100887.38;5025983;28;19991;-55
2023/02/07 09:26:19;;;;;;;;;;;;;;;-1.86;100.00;100888.00;5023595;28;20099;-58
2023/02/07 09:28:44;;;;;;;;;;;;;;;-1.68;100.00;100896.78;5028418;28;19998;-55
2023/02/07 09:31:11;;;;;;;;;;;;;;;-1.85;100.00;100898.19;5020792;28;19925;-56
2023/02/07 09:33:37;;;;;;;;;;;;;;;-1.99;100.00;100898.88;5028185;28;19963;-57
2023/02/07 09:36:03;;;;;;;;;;;;;;;-2.14;100.00;100891.97;5025096;28;20023;-53
2023/02/07 09:38:28;;;;;;;;;;;;;;;-2.16;100.00;100884.31;5026846;28;19929;-58
2023/02/07 09:40:54;;;;;;;;;;;;;;;-2.08;100.00;100883.19;5025680;28;19933;-58
2023/02/07 09:43:38;;;;;;;;;;;;;;;-1.97;100.00;100872.25;5025084;28;20237;-54
2023/02/07 09:46:11;;;;;;;;;;;;;;;-1.76;100.00;100875.28;5024538;28;20468;-51
2023/02/07 09:48:40;;;;;;;;;;;;;;;-1.89;100.00;100873.63;5023071;28;19925;-51
2023/02/07 09:51:06;;;;;;;;;;;;;;;-1.93;100.00;100873.31;5023811;28;19932;-55
2023/02/07 09:53:39;;;;;;;;;;;;;;;-1.61;100.00;100880.47;5028666;28;19975;-54
2023/02/07 09:56:06;;;;;;;;;;;;;;;-1.50;100.00;100879.50;5028650;28;19947;-58
2023/02/07 09:58:36;;;;;;;;;;;;;;;-1.07;100.00;100873.06;5030674;28;19925;-54
2023/02/07 10:01:14;;;;;;;;;;;;;;;-0.89;100.00;100874.19;5028781;28;19932;-56
2023/02/07 10:03:45;;;;;;;;;;;;;;;-1.00;99.57;100886.09;5030549;28;19952;-54
2023/02/07 10:06:22;;;;;;;;;;;;;;;-1.00;97.96;100883.59;5021123;28;19959;-56
2023/02/07 10:08:50;;;;;;;;;;;;;;;-1.02;97.62;100880.09;5023338;28;20240;-56
2023/02/07 10:11:22;;;;;;;;;;;;;;;-0.97;96.09;100881.25;5024471;28;20380;-56
2023/02/07 10:14:00;;;;;;;;;;;;;;;-0.91;95.51;100885.81;5022406;28;20275;-55
2023/02/07 10:16:43;;;;;;;;;;;;;;;-0.86;93.51;100873.50;5026876;28;19931;-56
2023/02/07 10:19:28;;;;;;;;;;;;;;;-0.87;94.32;100876.81;5024401;28;20034;-56
2023/02/07 10:22:13;;;;;;;;;;;;;;;-0.89;93.36;100876.69;5025726;28;19924;-56
2023/02/07 10:25:12;;;;;;;;;;;;;;;-0.75;92.58;100872.53;5017148;28;19931;-56
2023/02/07 10:27:56;;;;;;;;;;;;;;;-0.55;91.21;100862.88;5017213;28;19924;-53
2023/02/07 10:30:30;;;;;;;;;;;;;;;-0.90;90.37;100862.38;5035000;28;19998;-54
2023/02/07 10:33:00;;;;;;;;;;;;;;;-1.31;93.18;100858.91;5024309;28;19928;-52
2023/02/07 10:35:32;;;;;;;;;;;;;;;-1.33;93.83;100856.31;5025523;28;19975;-54
2023/02/07 10:38:00;;;;;;;;;;;;;;;-1.23;93.49;100855.25;5027970;28;20426;-55
2023/02/07 10:40:35;;;;;;;;;;;;;;;-1.05;91.41;100848.84;5030558;28;19925;-55
2023/02/07 10:43:02;;;;;;;;;;;;;;;-1.12;91.24;100850.09;5031713;28;20289;-53
2023/02/07 10:45:28;;;;;;;;;;;;;;;-0.95;88.95;100839.44;5028075;28;19925;-56
2023/02/07 10:47:54;;;;;;;;;;;;;;;-0.94;87.02;100838.69;5029507;28;19933;-54
2023/02/07 10:50:21;;;;;;;;;;;;;;;-0.67;86.05;100831.03;5027813;28;20385;-56
2023/02/07 10:52:52;;;;;;;;;;;;;;;-0.50;83.13;100823.72;5028273;28;20445;-56
2023/02/07 10:55:18;;;;;;;;;;;;;;;-0.50;79.63;100816.16;5029831;28;20018;-54
2023/02/07 10:57:54;;;;;;;;;;;;;;;-0.25;78.10;100813.44;5026792;28;19939;-56
2023/02/07 11:00:24;;;;;;;;;;;;;;;-0.15;77.03;100814.88;5027820;28;19926;-54
2023/02/07 11:02:52;;;;;;;;;;;;;;;-0.06;72.05;100807.84;5031055;28;19925;-54
2023/02/07 11:05:17;;;;;;;;;;;;;;;-0.06;70.01;100816.28;5030819;28;20459;-58
2023/02/07 11:08:03;;;;;;;;;;;;;;;-0.01;70.08;100811.50;5031315;28;19925;-58
2023/02/07 11:10:32;;;;;;;;;;;;;;;-0.06;69.03;100807.84;5009562;28;19940;-54
2023/02/07 11:12:58;;;;;;;;;;;;;;;-0.15;70.27;100819.91;5026511;28;19925;-51
2023/02/07 11:15:30;;;;;;;;;;;;;;;-0.12;68.97;100810.88;5029554;28;19929;-60
2023/02/07 11:17:55;;;;;;;;;;;;;;;0.16;70.20;100815.88;5034760;28;19932;-52
2023/02/07 11:20:41;;;;;;;;;;;;;;;0.01;66.16;100812.44;5027597;28;20008;-51
2023/02/07 11:23:11;;;;;;;;;;;;;;;-0.16;65.75;100805.56;5022009;28;19925;-52
2023/02/07 11:25:44;;;;;;;;;;;;;;;-0.24;66.96;100802.59;5030511;28;19955;-56
2023/02/07 11:28:21;;;;;;;;;;;;;;;-0.12;66.71;100800.78;5027499;28;19925;-59
2023/02/07 11:30:51;;;;;;;;;;;;;;;0.13;67.38;100804.75;5027047;28;19925;-52
2023/02/07 11:33:22;;;;;;;;;;;;;;;0.15;66.58;100799.00;5025979;28;19929;-50
2023/02/07 11:36:01;;;;;;;;;;;;;;;0.05;66.38;100791.66;5028054;28;20364;-51
2023/02/07 11:38:28;;;;;;;;;;;;;;;0.18;64.53;100775.59;5028482;28;20063;-55
2023/02/07 11:40:57;;;;;;;;;;;;;;;0.35;61.43;100780.81;5029662;28;20388;-53
2023/02/07 11:43:23;;;;;;;;;;;;;;;0.21;62.37;100774.09;5028055;28;19929;-52
2023/02/07 11:45:54;;;;;;;;;;;;;;;0.31;64.44;100772.97;5029157;28;19990;-51
2023/02/07 11:48:30;;;;;;;;;;;;;;;0.26;66.19;100774.38;5029993;28;19967;-51
2023/02/07 11:50:57;;;;;;;;;;;;;;;0.24;62.76;100763.34;5029645;28;19929;-58
2023/02/07 11:53:37;;;;;;;;;;;;;;;-0.19;62.09;100768.47;5030358;28;19960;-54
2023/02/07 11:56:03;;;;;;;;;;;;;;;0.03;64.46;100772.22;5028189;28;19924;-52
2023/02/07 11:58:28;;;;;;;;;;;;;;;0.05;61.51;100778.19;5026011;28;20219;-50
2023/02/07 12:00:54;;;;;;;;;;;;;;;0.21;59.68;100775.78;5027122;28;19929;-54
2023/02/07 12:03:23;;;;;;;;;;;;;;;0.46;59.81;100773.84;5027068;28;20546;-54
2023/02/07 12:05:57;;;;;;;;;;;;;;;0.61;56.83;100769.63;5025972;28;19987;-53
2023/02/07 12:08:24;;;;;;;;;;;;;;;0.72;56.90;100776.13;5027116;28;19928;-52
2023/02/07 12:10:51;;;;;;;;;;;;;;;0.83;55.82;100764.09;5029455;28;20395;-52
2023/02/07 12:13:31;;;;;;;;;;;;;;;0.81;55.28;100766.53;5027935;28;19929;-53
2023/02/07 12:16:01;;;;;;;;;;;;;;;0.97;54.84;100763.19;5030567;28;20444;-52
2023/02/07 12:18:27;;;;;;;;;;;;;;;0.96;55.33;100766.47;5029978;28;20342;-51
2023/02/07 12:20:56;;;;;;;;;;;;;;;1.04;56.03;100764.34;5028922;28;19975;-60
2023/02/07 12:23:37;;;;;;;;;;;;;;;0.58;54.97;100766.94;5027836;28;19925;-49
2023/02/07 12:26:07;;;;;;;;;;;;;;;0.61;56.24;100767.09;5026626;28;20004;-52
2023/02/07 12:28:42;;;;;;;;;;;;;;;0.82;54.41;100763.22;5027091;28;19924;-54
2023/02/07 12:31:15;;;;;;;;;;;;;;;0.85;53.85;100759.97;5027750;28;20039;-52
2023/02/07 12:34:03;;;;;;;;;;;;;;;0.88;52.69;100758.50;5032290;28;19932;-51
2023/02/07 12:36:31;;;;;;;;;;;;;;;0.89;55.53;100762.75;5029383;28;20388;-53
2023/02/07 12:39:01;;;;;;;;;;;;;;;0.82;54.23;100758.16;5029440;28;20367;-54